sensor_id;sensor_type;location;lat;lon;timestamp;pressure;altitude;pressure_sealevel;temperature;humidity
49627;BME280;35527;54.616;39.786;2023-04-05T00:00:08;99974.16;;;8.39;93.72
49627;BME280;35527;54.616;39.786;2023-04-05T00:03:15;99974.22;;;8.34;93.48
49627;BME280;35527;54.616;39.786;2023-04-05T00:06:20;99973.31;;;8.37;92.95
49627;BME280;35527;54.616;39.786;2023-04-05T00:09:33;99962.25;;;8.32;92.25
49627;BME280;35527;54.616;39.786;2023-04-05T00:12:38;99948.28;;;8.42;90.87
49627;BME280;35527;54.616;39.786;2023-04-05T00:15:42;99962.66;;;8.49;90.37
49627;BME280;35527;54.616;39.786;2023-04-05T00:18:46;99973.06;;;8.46;90.17
49627;BME280;35527;54.616;39.786;2023-04-05T00:21:52;99959.09;;;8.22;91.11
49627;BME280;35527;54.616;39.786;2023-04-05T00:24:59;99945.50;;;8.17;91.51
49627;BME280;35527;54.616;39.786;2023-04-05T00:28:05;99955.84;;;8.48;91.47
49627;BME280;35527;54.616;39.786;2023-04-05T00:31:09;99935.91;;;8.53;89.79
49627;BME280;35527;54.616;39.786;2023-04-05T00:34:11;99954.06;;;8.50;90.71
49627;BME280;35527;54.616;39.786;2023-04-05T00:37:16;99949.03;;;8.46;90.42
49627;BME280;35527;54.616;39.786;2023-04-05T00:40:22;99950.69;;;8.48;90.48
49627;BME280;35527;54.616;39.786;2023-04-05T00:43:25;99957.50;;;8.51;89.11
49627;BME280;35527;54.616;39.786;2023-04-05T00:46:33;99937.88;;;8.45;88.80
49627;BME280;35527;54.616;39.786;2023-04-05T00:49:37;99961.16;;;8.42;88.52
49627;BME280;35527;54.616;39.786;2023-04-05T00:52:42;99962.28;;;8.63;89.09
49627;BME280;35527;54.616;39.786;2023-04-05T00:55:46;99940.66;;;8.97;86.60
49627;BME280;35527;54.616;39.786;2023-04-05T00:58:50;99970.06;;;8.91;86.50
49627;BME280;35527;54.616;39.786;2023-04-05T01:02:07;99978.69;;;8.61;86.55
49627;BME280;35527;54.616;39.786;2023-04-05T01:05:29;99977.06;;;8.88;84.64
49627;BME280;35527;54.616;39.786;2023-04-05T01:08:48;99982.19;;;8.58;86.58
49627;BME280;35527;54.616;39.786;2023-04-05T01:12:03;99988.38;;;8.52;87.46
49627;BME280;35527;54.616;39.786;2023-04-05T01:15:10;99993.25;;;8.30;88.29
49627;BME280;35527;54.616;39.786;2023-04-05T01:18:17;99976.66;;;8.08;90.13
49627;BME280;35527;54.616;39.786;2023-04-05T01:25:01;99971.25;;;8.19;89.79
49627;BME280;35527;54.616;39.786;2023-04-05T01:31:41;99982.47;;;8.16;90.55
49627;BME280;35527;54.616;39.786;2023-04-05T01:38:02;99969.38;;;7.91;91.86
49627;BME280;35527;54.616;39.786;2023-04-05T01:41:05;99934.84;;;7.64;92.13
49627;BME280;35527;54.616;39.786;2023-04-05T01:44:10;99990.66;;;7.99;93.03
49627;BME280;35527;54.616;39.786;2023-04-05T01:47:16;99991.81;;;7.87;92.97
49627;BME280;35527;54.616;39.786;2023-04-05T01:50:22;99991.09;;;7.81;93.12
49627;BME280;35527;54.616;39.786;2023-04-05T01:53:28;99984.34;;;7.75;94.30
49627;BME280;35527;54.616;39.786;2023-04-05T01:56:31;99993.97;;;7.70;94.72
49627;BME280;35527;54.616;39.786;2023-04-05T01:59:38;99997.56;;;7.97;94.10
49627;BME280;35527;54.616;39.786;2023-04-05T02:02:43;99994.78;;;7.71;94.83
49627;BME280;35527;54.616;39.786;2023-04-05T02:05:50;99974.84;;;7.79;94.31
49627;BME280;35527;54.616;39.786;2023-04-05T02:08:53;99989.97;;;7.57;94.93
49627;BME280;35527;54.616;39.786;2023-04-05T02:11:56;100009.00;;;7.50;97.11
49627;BME280;35527;54.616;39.786;2023-04-05T02:14:59;99978.78;;;7.20;97.17
49627;BME280;35527;54.616;39.786;2023-04-05T02:18:05;100011.88;;;7.37;98.30
49627;BME280;35527;54.616;39.786;2023-04-05T02:21:12;100009.38;;;7.34;98.45
49627;BME280;35527;54.616;39.786;2023-04-05T02:24:18;100005.13;;;7.32;98.73
49627;BME280;35527;54.616;39.786;2023-04-05T02:27:23;99989.09;;;7.20;99.21
49627;BME280;35527;54.616;39.786;2023-04-05T02:30:29;99995.22;;;7.15;98.80
49627;BME280;35527;54.616;39.786;2023-04-05T02:33:35;100011.47;;;7.18;99.20
49627;BME280;35527;54.616;39.786;2023-04-05T02:36:38;100001.22;;;7.15;100.00
49627;BME280;35527;54.616;39.786;2023-04-05T02:39:43;100010.44;;;7.26;99.85
49627;BME280;35527;54.616;39.786;2023-04-05T02:42:48;100024.94;;;7.30;99.96
49627;BME280;35527;54.616;39.786;2023-04-05T02:45:52;100019.00;;;7.26;100.00
49627;BME280;35527;54.616;39.786;2023-04-05T02:48:57;100028.22;;;7.36;100.00
49627;BME280;35527;54.616;39.786;2023-04-05T02:52:02;100026.47;;;7.37;100.00
49627;BME280;35527;54.616;39.786;2023-04-05T02:55:06;100031.63;;;7.37;100.00
49627;BME280;35527;54.616;39.786;2023-04-05T02:58:10;100031.63;;;7.38;100.00
49627;BME280;35527;54.616;39.786;2023-04-05T03:01:21;100017.69;;;7.45;100.00
49627;BME280;35527;54.616;39.786;2023-04-05T03:04:24;100008.03;;;7.55;100.00
49627;BME280;35527;54.616;39.786;2023-04-05T03:07:34;100000.22;;;7.94;99.27
49627;BME280;35527;54.616;39.786;2023-04-05T03:10:41;100030.03;;;8.37;97.66
49627;BME280;35527;54.616;39.786;2023-04-05T03:13:51;100011.22;;;8.66;96.00
49627;BME280;35527;54.616;39.786;2023-04-05T03:17:16;100027.72;;;9.21;91.62
49627;BME280;35527;54.616;39.786;2023-04-05T03:20:32;100028.69;;;9.72;87.53
49627;BME280;35527;54.616;39.786;2023-04-05T03:23:37;100037.31;;;9.99;83.90
49627;BME280;35527;54.616;39.786;2023-04-05T03:26:46;100034.75;;;10.49;79.08
49627;BME280;35527;54.616;39.786;2023-04-05T03:29:54;100028.44;;;11.05;74.36
49627;BME280;35527;54.616;39.786;2023-04-05T03:32:58;100044.19;;;11.22;71.43
49627;BME280;35527;54.616;39.786;2023-04-05T03:36:16;100039.69;;;11.04;69.48
49627;BME280;35527;54.616;39.786;2023-04-05T03:39:23;100025.72;;;10.11;72.76
49627;BME280;35527;54.616;39.786;2023-04-05T03:42:28;100052.47;;;9.83;75.74
49627;BME280;35527;54.616;39.786;2023-04-05T03:45:34;100046.22;;;9.90;76.39
49627;BME280;35527;54.616;39.786;2023-04-05T03:48:40;100044.94;;;9.49;79.04
49627;BME280;35527;54.616;39.786;2023-04-05T03:51:46;100044.41;;;9.66;79.79
49627;BME280;35527;54.616;39.786;2023-04-05T03:54:48;100052.44;;;9.57;80.51
49627;BME280;35527;54.616;39.786;2023-04-05T03:57:58;100053.38;;;9.54;81.30
49627;BME280;35527;54.616;39.786;2023-04-05T04:01:08;100057.03;;;9.47;81.77
49627;BME280;35527;54.616;39.786;2023-04-05T04:04:12;100058.47;;;9.57;81.23
49627;BME280;35527;54.616;39.786;2023-04-05T04:07:21;100048.72;;;9.65;80.48
49627;BME280;35527;54.616;39.786;2023-04-05T04:10:23;100050.78;;;9.56;80.76
49627;BME280;35527;54.616;39.786;2023-04-05T04:13:31;100058.16;;;9.66;82.29
49627;BME280;35527;54.616;39.786;2023-04-05T04:16:38;100070.88;;;9.73;81.99
49627;BME280;35527;54.616;39.786;2023-04-05T04:19:44;100072.16;;;9.87;81.20
49627;BME280;35527;54.616;39.786;2023-04-05T04:23:12;100077.97;;;9.94;81.70
49627;BME280;35527;54.616;39.786;2023-04-05T04:26:48;100072.84;;;9.92;81.97
49627;BME280;35527;54.616;39.786;2023-04-05T04:30:12;100064.69;;;9.78;82.23
49627;BME280;35527;54.616;39.786;2023-04-05T04:33:24;100081.53;;;9.90;82.54
49627;BME280;35527;54.616;39.786;2023-04-05T04:36:44;100087.38;;;9.97;83.34
49627;BME280;35527;54.616;39.786;2023-04-05T04:40:15;100083.66;;;10.32;80.90
49627;BME280;35527;54.616;39.786;2023-04-05T04:43:54;100078.66;;;10.52;81.14
49627;BME280;35527;54.616;39.786;2023-04-05T04:47:09;100084.63;;;10.54;79.69
49627;BME280;35527;54.616;39.786;2023-04-05T04:50:34;100092.44;;;11.01;78.34
49627;BME280;35527;54.616;39.786;2023-04-05T04:53:45;100077.47;;;11.55;75.44
49627;BME280;35527;54.616;39.786;2023-04-05T04:56:48;100084.72;;;12.93;66.85
49627;BME280;35527;54.616;39.786;2023-04-05T04:59:51;100062.13;;;12.56;64.91
49627;BME280;35527;54.616;39.786;2023-04-05T05:02:55;100082.78;;;12.98;65.07
49627;BME280;35527;54.616;39.786;2023-04-05T05:05:59;100094.50;;;13.65;62.62
49627;BME280;35527;54.616;39.786;2023-04-05T05:09:06;100085.38;;;14.62;57.68
49627;BME280;35527;54.616;39.786;2023-04-05T05:12:18;100084.44;;;14.81;55.33
49627;BME280;35527;54.616;39.786;2023-04-05T05:15:22;100059.19;;;15.15;53.40
49627;BME280;35527;54.616;39.786;2023-04-05T05:18:27;100094.13;;;15.60;52.86
49627;BME280;35527;54.616;39.786;2023-04-05T05:21:31;100094.69;;;15.17;52.25
49627;BME280;35527;54.616;39.786;2023-04-05T05:24:36;100101.19;;;15.73;52.37
49627;BME280;35527;54.616;39.786;2023-04-05T05:27:40;100100.31;;;16.35;49.73
49627;BME280;35527;54.616;39.786;2023-04-05T05:30:43;100097.91;;;16.46;49.04
49627;BME280;35527;54.616;39.786;2023-04-05T05:33:46;100080.78;;;15.96;49.50
49627;BME280;35527;54.616;39.786;2023-04-05T05:36:51;100107.88;;;17.27;47.40
49627;BME280;35527;54.616;39.786;2023-04-05T05:39:58;100082.00;;;17.91;45.67
49627;BME280;35527;54.616;39.786;2023-04-05T05:43:01;100101.63;;;18.38;44.69
49627;BME280;35527;54.616;39.786;2023-04-05T05:46:04;100096.19;;;19.05;42.89
49627;BME280;35527;54.616;39.786;2023-04-05T05:49:07;100063.06;;;19.65;40.90
49627;BME280;35527;54.616;39.786;2023-04-05T05:52:10;100096.91;;;19.93;40.17
49627;BME280;35527;54.616;39.786;2023-04-05T05:55:15;100098.38;;;19.61;40.32
49627;BME280;35527;54.616;39.786;2023-04-05T05:58:18;100099.66;;;19.55;40.40
49627;BME280;35527;54.616;39.786;2023-04-05T06:01:20;100097.44;;;19.62;40.00
49627;BME280;35527;54.616;39.786;2023-04-05T06:04:25;100095.09;;;19.94;39.63
49627;BME280;35527;54.616;39.786;2023-04-05T06:07:36;100106.06;;;19.01;41.63
49627;BME280;35527;54.616;39.786;2023-04-05T06:10:39;100106.44;;;19.33;41.45
49627;BME280;35527;54.616;39.786;2023-04-05T06:13:42;100105.34;;;19.49;40.75
49627;BME280;35527;54.616;39.786;2023-04-05T06:16:45;100100.69;;;20.13;39.50
49627;BME280;35527;54.616;39.786;2023-04-05T06:19:52;100105.72;;;20.63;38.38
49627;BME280;35527;54.616;39.786;2023-04-05T06:22:54;100095.25;;;20.85;38.22
49627;BME280;35527;54.616;39.786;2023-04-05T06:25:57;100106.00;;;21.93;36.63
49627;BME280;35527;54.616;39.786;2023-04-05T06:29:01;100096.19;;;22.16;35.69
49627;BME280;35527;54.616;39.786;2023-04-05T06:32:08;100096.75;;;21.67;36.29
49627;BME280;35527;54.616;39.786;2023-04-05T06:35:11;100080.31;;;19.93;38.90
49627;BME280;35527;54.616;39.786;2023-04-05T06:38:15;100107.66;;;18.78;41.27
49627;BME280;35527;54.616;39.786;2023-04-05T06:41:18;100079.31;;;17.92;43.31
49627;BME280;35527;54.616;39.786;2023-04-05T06:44:23;100102.75;;;17.67;44.01
49627;BME280;35527;54.616;39.786;2023-04-05T06:47:26;100105.69;;;17.48;44.72
49627;BME280;35527;54.616;39.786;2023-04-05T06:50:28;100108.72;;;18.23;43.20
49627;BME280;35527;54.616;39.786;2023-04-05T06:53:34;100085.56;;;18.30;42.61
49627;BME280;35527;54.616;39.786;2023-04-05T06:56:40;100100.13;;;17.94;43.40
49627;BME280;35527;54.616;39.786;2023-04-05T06:59:44;100119.91;;;17.85;43.72
49627;BME280;35527;54.616;39.786;2023-04-05T07:02:51;100120.91;;;17.55;44.45
49627;BME280;35527;54.616;39.786;2023-04-05T07:05:56;100108.06;;;17.65;44.56
49627;BME280;35527;54.616;39.786;2023-04-05T07:09:02;100106.19;;;17.82;44.31
49627;BME280;35527;54.616;39.786;2023-04-05T07:12:08;100100.81;;;17.97;43.92
49627;BME280;35527;54.616;39.786;2023-04-05T07:15:12;100089.03;;;17.90;43.99
49627;BME280;35527;54.616;39.786;2023-04-05T07:18:15;100087.38;;;17.89;44.08
49627;BME280;35527;54.616;39.786;2023-04-05T07:21:19;100107.44;;;18.94;42.71
49627;BME280;35527;54.616;39.786;2023-04-05T07:24:21;100101.53;;;19.16;41.87
49627;BME280;35527;54.616;39.786;2023-04-05T07:27:24;100088.47;;;18.78;41.60
49627;BME280;35527;54.616;39.786;2023-04-05T07:30:27;100101.06;;;18.20;43.18
49627;BME280;35527;54.616;39.786;2023-04-05T07:33:34;100096.72;;;18.72;42.47
49627;BME280;35527;54.616;39.786;2023-04-05T07:36:37;100099.63;;;19.68;41.29
49627;BME280;35527;54.616;39.786;2023-04-05T07:39:46;100104.09;;;20.84;38.80
49627;BME280;35527;54.616;39.786;2023-04-05T07:42:50;100106.25;;;20.79;38.40
49627;BME280;35527;54.616;39.786;2023-04-05T07:46:04;100108.28;;;20.87;38.33
49627;BME280;35527;54.616;39.786;2023-04-05T07:49:07;100086.63;;;19.90;39.30
49627;BME280;35527;54.616;39.786;2023-04-05T07:52:11;100101.59;;;20.36;39.16
49627;BME280;35527;54.616;39.786;2023-04-05T07:55:13;100096.94;;;20.98;38.04
49627;BME280;35527;54.616;39.786;2023-04-05T07:58:24;100088.66;;;21.02;37.62
49627;BME280;35527;54.616;39.786;2023-04-05T08:01:28;100094.00;;;19.85;39.97
49627;BME280;35527;54.616;39.786;2023-04-05T08:04:31;100086.09;;;19.61;40.30
49627;BME280;35527;54.616;39.786;2023-04-05T08:07:34;100104.56;;;19.72;40.23
49627;BME280;35527;54.616;39.786;2023-04-05T08:10:39;100103.72;;;19.22;41.12
49627;BME280;35527;54.616;39.786;2023-04-05T08:13:45;100105.31;;;19.62;40.76
49627;BME280;35527;54.616;39.786;2023-04-05T08:16:48;100079.03;;;19.74;40.56
49627;BME280;35527;54.616;39.786;2023-04-05T08:19:53;100104.66;;;19.71;40.70
49627;BME280;35527;54.616;39.786;2023-04-05T08:22:57;100088.91;;;19.71;40.83
49627;BME280;35527;54.616;39.786;2023-04-05T08:26:00;100102.69;;;19.62;41.34
49627;BME280;35527;54.616;39.786;2023-04-05T08:29:07;100097.72;;;20.18;40.15
49627;BME280;35527;54.616;39.786;2023-04-05T08:32:12;100101.13;;;20.42;39.66
49627;BME280;35527;54.616;39.786;2023-04-05T08:35:18;100089.72;;;20.19;40.22
49627;BME280;35527;54.616;39.786;2023-04-05T08:38:22;100100.50;;;19.92;41.03
49627;BME280;35527;54.616;39.786;2023-04-05T08:41:34;100100.16;;;20.32;40.20
49627;BME280;35527;54.616;39.786;2023-04-05T08:44:43;100091.66;;;20.75;39.61
49627;BME280;35527;54.616;39.786;2023-04-05T08:47:51;100069.63;;;21.44;38.62
49627;BME280;35527;54.616;39.786;2023-04-05T08:50:55;100093.03;;;22.34;36.60
49627;BME280;35527;54.616;39.786;2023-04-05T08:53:59;100088.94;;;22.71;36.13
49627;BME280;35527;54.616;39.786;2023-04-05T08:57:02;100081.22;;;23.10;35.65
49627;BME280;35527;54.616;39.786;2023-04-05T09:00:11;100073.69;;;23.06;35.18
49627;BME280;35527;54.616;39.786;2023-04-05T09:03:16;100088.53;;;22.24;36.46
49627;BME280;35527;54.616;39.786;2023-04-05T09:06:21;100085.00;;;22.35;36.41
49627;BME280;35527;54.616;39.786;2023-04-05T09:09:24;100074.81;;;22.82;35.50
49627;BME280;35527;54.616;39.786;2023-04-05T09:12:29;100095.47;;;22.46;35.62
49627;BME280;35527;54.616;39.786;2023-04-05T09:15:37;100082.19;;;21.40;36.91
49627;BME280;35527;54.616;39.786;2023-04-05T09:18:42;100081.00;;;20.88;37.81
49627;BME280;35527;54.616;39.786;2023-04-05T09:28:39;100067.59;;;21.47;36.93
49627;BME280;35527;54.616;39.786;2023-04-05T09:31:48;100084.38;;;21.78;36.66
49627;BME280;35527;54.616;39.786;2023-04-05T09:34:52;100082.78;;;21.55;36.74
49627;BME280;35527;54.616;39.786;2023-04-05T09:38:05;100088.69;;;21.79;36.27
49627;BME280;35527;54.616;39.786;2023-04-05T09:41:10;100078.13;;;21.79;35.93
49627;BME280;35527;54.616;39.786;2023-04-05T09:44:14;100061.59;;;21.23;36.77
49627;BME280;35527;54.616;39.786;2023-04-05T09:47:24;100076.34;;;21.03;37.15
49627;BME280;35527;54.616;39.786;2023-04-05T09:50:35;100073.00;;;21.12;37.02
49627;BME280;35527;54.616;39.786;2023-04-05T09:54:01;100079.09;;;21.01;37.27
49627;BME280;35527;54.616;39.786;2023-04-05T09:57:09;100059.16;;;20.30;38.38
49627;BME280;35527;54.616;39.786;2023-04-05T10:00:20;100062.69;;;20.06;38.79
49627;BME280;35527;54.616;39.786;2023-04-05T10:03:25;100066.28;;;20.16;38.60
49627;BME280;35527;54.616;39.786;2023-04-05T10:06:39;100076.53;;;20.43;38.19
49627;BME280;35527;54.616;39.786;2023-04-05T10:09:47;100063.16;;;19.76;39.78
49627;BME280;35527;54.616;39.786;2023-04-05T10:12:52;100058.69;;;19.65;39.57
49627;BME280;35527;54.616;39.786;2023-04-05T10:16:00;100063.63;;;20.05;39.24
49627;BME280;35527;54.616;39.786;2023-04-05T10:19:05;100062.19;;;20.01;39.52
49627;BME280;35527;54.616;39.786;2023-04-05T10:22:22;100021.72;;;19.55;39.35
49627;BME280;35527;54.616;39.786;2023-04-05T10:29:17;100057.28;;;19.72;40.19
49627;BME280;35527;54.616;39.786;2023-04-05T10:39:45;100068.34;;;21.38;37.42
49627;BME280;35527;54.616;39.786;2023-04-05T10:42:49;100065.06;;;21.89;36.79
49627;BME280;35527;54.616;39.786;2023-04-05T10:45:53;100065.50;;;21.94;36.09
49627;BME280;35527;54.616;39.786;2023-04-05T10:49:06;100059.03;;;21.98;35.83
49627;BME280;35527;54.616;39.786;2023-04-05T10:52:15;100065.13;;;20.89;37.75
49627;BME280;35527;54.616;39.786;2023-04-05T10:55:20;100058.94;;;20.44;38.84
49627;BME280;35527;54.616;39.786;2023-04-05T10:58:24;100052.47;;;20.37;39.28
49627;BME280;35527;54.616;39.786;2023-04-05T11:01:29;100039.19;;;20.27;38.70
49627;BME280;35527;54.616;39.786;2023-04-05T11:04:33;100045.13;;;20.64;38.19
49627;BME280;35527;54.616;39.786;2023-04-05T11:07:44;100048.13;;;20.60;38.59
49627;BME280;35527;54.616;39.786;2023-04-05T11:10:51;100054.53;;;20.44;39.03
49627;BME280;35527;54.616;39.786;2023-04-05T11:13:55;100031.81;;;20.32;38.77
49627;BME280;35527;54.616;39.786;2023-04-05T11:17:02;100025.63;;;19.98;39.77
49627;BME280;35527;54.616;39.786;2023-04-05T11:20:10;100052.41;;;19.55;39.87
49627;BME280;35527;54.616;39.786;2023-04-05T11:23:16;100037.59;;;18.80;40.95
49627;BME280;35527;54.616;39.786;2023-04-05T11:26:21;100045.00;;;18.99;41.12
49627;BME280;35527;54.616;39.786;2023-04-05T11:29:45;100041.78;;;19.56;39.89
49627;BME280;35527;54.616;39.786;2023-04-05T11:32:50;100038.00;;;19.85;39.21
49627;BME280;35527;54.616;39.786;2023-04-05T11:36:00;100041.09;;;19.78;38.93
49627;BME280;35527;54.616;39.786;2023-04-05T11:42:23;100026.13;;;20.83;36.35
49627;BME280;35527;54.616;39.786;2023-04-05T11:45:29;100042.38;;;20.88;36.09
49627;BME280;35527;54.616;39.786;2023-04-05T11:48:34;100041.72;;;20.51;37.00
49627;BME280;35527;54.616;39.786;2023-04-05T11:51:41;100041.50;;;20.32;37.06
49627;BME280;35527;54.616;39.786;2023-04-05T11:54:47;100020.16;;;19.77;37.41
49627;BME280;35527;54.616;39.786;2023-04-05T11:57:53;100023.50;;;19.31;38.33
49627;BME280;35527;54.616;39.786;2023-04-05T12:00:59;100025.88;;;19.10;38.66
49627;BME280;35527;54.616;39.786;2023-04-05T12:04:06;100020.47;;;18.87;39.62
49627;BME280;35527;54.616;39.786;2023-04-05T12:07:12;100033.75;;;19.10;38.92
49627;BME280;35527;54.616;39.786;2023-04-05T12:10:16;100015.13;;;18.89;38.77
49627;BME280;35527;54.616;39.786;2023-04-05T12:13:32;100015.09;;;19.02;39.29
49627;BME280;35527;54.616;39.786;2023-04-05T12:16:47;100014.78;;;19.06;38.53
49627;BME280;35527;54.616;39.786;2023-04-05T12:19:53;100019.59;;;19.00;38.63
49627;BME280;35527;54.616;39.786;2023-04-05T12:22:56;100017.97;;;19.23;38.27
49627;BME280;35527;54.616;39.786;2023-04-05T12:25:59;100013.41;;;19.62;37.32
49627;BME280;35527;54.616;39.786;2023-04-05T12:29:05;100006.72;;;19.57;37.39
49627;BME280;35527;54.616;39.786;2023-04-05T12:32:09;100020.41;;;19.74;36.96
49627;BME280;35527;54.616;39.786;2023-04-05T12:35:20;100022.06;;;20.10;36.08
49627;BME280;35527;54.616;39.786;2023-04-05T12:38:27;100010.75;;;19.74;36.93
49627;BME280;35527;54.616;39.786;2023-04-05T12:41:32;100016.56;;;20.02;36.77
49627;BME280;35527;54.616;39.786;2023-04-05T12:44:42;100004.25;;;20.02;36.34
49627;BME280;35527;54.616;39.786;2023-04-05T12:47:51;100025.03;;;20.06;36.71
49627;BME280;35527;54.616;39.786;2023-04-05T12:50:54;100017.25;;;20.51;35.70
49627;BME280;35527;54.616;39.786;2023-04-05T12:54:00;100002.66;;;20.46;36.38
49627;BME280;35527;54.616;39.786;2023-04-05T12:57:04;100014.25;;;20.44;36.14
49627;BME280;35527;54.616;39.786;2023-04-05T13:00:13;99998.22;;;20.36;35.36
49627;BME280;35527;54.616;39.786;2023-04-05T13:03:18;100017.22;;;20.28;35.85
49627;BME280;35527;54.616;39.786;2023-04-05T13:06:22;100003.34;;;20.15;35.81
49627;BME280;35527;54.616;39.786;2023-04-05T13:09:26;100006.81;;;20.15;35.86
49627;BME280;35527;54.616;39.786;2023-04-05T13:12:29;100015.53;;;20.16;36.32
49627;BME280;35527;54.616;39.786;2023-04-05T13:15:32;100004.63;;;19.98;36.41
49627;BME280;35527;54.616;39.786;2023-04-05T13:18:36;100023.34;;;19.93;36.79
49627;BME280;35527;54.616;39.786;2023-04-05T13:21:41;100005.66;;;19.84;36.81
49627;BME280;35527;54.616;39.786;2023-04-05T13:24:45;99998.59;;;19.85;36.57
49627;BME280;35527;54.616;39.786;2023-04-05T13:27:49;100023.69;;;19.89;36.21
49627;BME280;35527;54.616;39.786;2023-04-05T13:30:57;100019.84;;;19.57;37.34
49627;BME280;35527;54.616;39.786;2023-04-05T13:34:06;100013.78;;;19.20;37.83
49627;BME280;35527;54.616;39.786;2023-04-05T13:37:14;100007.56;;;18.97;38.04
49627;BME280;35527;54.616;39.786;2023-04-05T13:40:17;100006.84;;;18.69;37.97
49627;BME280;35527;54.616;39.786;2023-04-05T13:43:21;100009.34;;;18.71;38.31
49627;BME280;35527;54.616;39.786;2023-04-05T13:46:26;99991.75;;;18.86;37.98
49627;BME280;35527;54.616;39.786;2023-04-05T13:49:30;100012.16;;;19.06;37.51
49627;BME280;35527;54.616;39.786;2023-04-05T13:52:33;99998.97;;;18.95;37.80
49627;BME280;35527;54.616;39.786;2023-04-05T13:55:38;100012.69;;;18.99;38.06
49627;BME280;35527;54.616;39.786;2023-04-05T13:58:45;100006.09;;;18.67;37.97
49627;BME280;35527;54.616;39.786;2023-04-05T14:01:51;100015.25;;;18.36;38.35
49627;BME280;35527;54.616;39.786;2023-04-05T14:04:53;100016.69;;;18.28;38.95
49627;BME280;35527;54.616;39.786;2023-04-05T14:07:57;100017.53;;;18.15;39.72
49627;BME280;35527;54.616;39.786;2023-04-05T14:11:07;100015.72;;;17.90;40.05
49627;BME280;35527;54.616;39.786;2023-04-05T14:14:10;100013.94;;;17.64;40.25
49627;BME280;35527;54.616;39.786;2023-04-05T14:17:13;100004.84;;;17.42;40.67
49627;BME280;35527;54.616;39.786;2023-04-05T14:20:19;100014.47;;;17.42;40.89
49627;BME280;35527;54.616;39.786;2023-04-05T14:23:28;100020.22;;;17.34;40.56
49627;BME280;35527;54.616;39.786;2023-04-05T14:26:31;100021.47;;;17.28;40.91
49627;BME280;35527;54.616;39.786;2023-04-05T14:29:36;100021.63;;;17.25;40.35
49627;BME280;35527;54.616;39.786;2023-04-05T14:32:38;100024.75;;;17.18;42.13
49627;BME280;35527;54.616;39.786;2023-04-05T14:35:44;100007.78;;;16.96;42.06
49627;BME280;35527;54.616;39.786;2023-04-05T14:38:49;100003.94;;;16.87;41.51
49627;BME280;35527;54.616;39.786;2023-04-05T14:41:51;100023.47;;;16.96;42.79
49627;BME280;35527;54.616;39.786;2023-04-05T14:44:57;100012.38;;;16.78;42.46
49627;BME280;35527;54.616;39.786;2023-04-05T14:48:01;100013.38;;;16.76;41.96
49627;BME280;35527;54.616;39.786;2023-04-05T14:51:04;100037.00;;;16.74;42.95
49627;BME280;35527;54.616;39.786;2023-04-05T14:54:08;100037.19;;;16.71;42.47
49627;BME280;35527;54.616;39.786;2023-04-05T14:57:10;100033.34;;;16.62;43.45
49627;BME280;35527;54.616;39.786;2023-04-05T15:00:18;100027.38;;;16.46;42.83
49627;BME280;35527;54.616;39.786;2023-04-05T15:03:21;100038.84;;;16.43;43.53
49627;BME280;35527;54.616;39.786;2023-04-05T15:06:25;100029.97;;;16.32;43.25
49627;BME280;35527;54.616;39.786;2023-04-05T15:09:30;100027.22;;;16.19;44.02
49627;BME280;35527;54.616;39.786;2023-04-05T15:12:33;100045.22;;;16.09;43.93
49627;BME280;35527;54.616;39.786;2023-04-05T15:15:39;100031.53;;;15.90;43.83
49627;BME280;35527;54.616;39.786;2023-04-05T15:18:42;100039.94;;;15.95;44.83
49627;BME280;35527;54.616;39.786;2023-04-05T15:21:45;100038.53;;;15.89;44.78
49627;BME280;35527;54.616;39.786;2023-04-05T15:24:52;100038.22;;;15.80;44.96
49627;BME280;35527;54.616;39.786;2023-04-05T15:28:00;100036.06;;;15.72;44.58
49627;BME280;35527;54.616;39.786;2023-04-05T15:31:09;100051.03;;;15.68;44.70
49627;BME280;35527;54.616;39.786;2023-04-05T15:34:13;100046.91;;;15.80;44.94
49627;BME280;35527;54.616;39.786;2023-04-05T15:37:22;100040.34;;;15.57;44.80
49627;BME280;35527;54.616;39.786;2023-04-05T15:40:24;100055.41;;;15.52;45.38
49627;BME280;35527;54.616;39.786;2023-04-05T15:43:29;100060.03;;;15.31;46.49
49627;BME280;35527;54.616;39.786;2023-04-05T15:46:34;100071.88;;;15.21;46.33
49627;BME280;35527;54.616;39.786;2023-04-05T15:49:39;100070.00;;;15.07;47.11
49627;BME280;35527;54.616;39.786;2023-04-05T15:52:43;100080.00;;;14.99;46.86
49627;BME280;35527;54.616;39.786;2023-04-05T15:55:46;100078.06;;;14.86;46.94
49627;BME280;35527;54.616;39.786;2023-04-05T15:58:50;100076.78;;;14.78;47.21
49627;BME280;35527;54.616;39.786;2023-04-05T16:01:59;100067.50;;;14.72;47.76
49627;BME280;35527;54.616;39.786;2023-04-05T16:05:03;100083.97;;;14.73;48.07
49627;BME280;35527;54.616;39.786;2023-04-05T16:08:06;100092.78;;;14.70;48.24
49627;BME280;35527;54.616;39.786;2023-04-05T16:11:09;100082.94;;;14.59;48.36
49627;BME280;35527;54.616;39.786;2023-04-05T16:14:14;100090.06;;;14.56;48.42
49627;BME280;35527;54.616;39.786;2023-04-05T16:17:17;100091.03;;;14.53;48.48
49627;BME280;35527;54.616;39.786;2023-04-05T16:20:21;100099.78;;;14.52;48.74
49627;BME280;35527;54.616;39.786;2023-04-05T16:23:24;100085.06;;;14.34;48.69
49627;BME280;35527;54.616;39.786;2023-04-05T16:26:33;100109.09;;;14.39;49.31
49627;BME280;35527;54.616;39.786;2023-04-05T16:29:36;100108.56;;;14.32;50.04
49627;BME280;35527;54.616;39.786;2023-04-05T16:32:40;100115.28;;;14.19;49.36
49627;BME280;35527;54.616;39.786;2023-04-05T16:35:43;100119.13;;;14.12;49.89